Time;durP1;ratioP1;P1;durP2;ratioP2;P2;SDS_P1;SDS_P2;PMS_P1;PMS_P2;Temp;Humidity;BMP_temperature;BMP_pressure;BME280_temperature;BME280_humidity;BME280_pressure;Samples;Min_cycle;Max_cycle;Signal;HPM_P1;HPM_P2
2024/01/26 00:01:41;;;;;;;55.42;31.25;;;;;;;;;;5032809;28;20028;-78
2024/01/26 00:04:06;;;;;;;29.42;17.75;;;;;;;;;;5019702;28;21043;-77
2024/01/26 00:06:32;;;;;;;18.85;11.52;;;;;;;;;;5024781;28;20082;-80
2024/01/26 00:09:07;;;;;;;16.13;8.30;;;;;;;;;;5034454;28;20160;-79
2024/01/26 00:11:32;;;;;;;24.73;14.93;;;;;;;;;;5033420;28;20035;-77
2024/01/26 00:13:57;;;;;;;24.15;15.63;;;;;;;;;;5019627;28;20028;-77
2024/01/26 00:16:23;;;;;;;23.65;12.07;;;;;;;;;;5034364;28;20036;-76
2024/01/26 00:18:48;;;;;;;21.30;12.35;;;;;;;;;;5030804;28;20030;-78
2024/01/26 00:21:13;;;;;;;18.02;10.10;;;;;;;;;;5033603;28;20041;-79
2024/01/26 00:23:38;;;;;;;14.45;8.50;;;;;;;;;;5031602;28;20061;-79
2024/01/26 00:26:04;;;;;;;17.80;10.43;;;;;;;;;;5032248;28;20028;-78
2024/01/26 00:28:29;;;;;;;18.55;11.77;;;;;;;;;;5033974;28;20052;-78
2024/01/26 00:30:54;;;;;;;22.33;13.32;;;;;;;;;;5029102;28;20022;-80
2024/01/26 00:33:20;;;;;;;33.17;20.48;;;;;;;;;;5020753;28;20041;-80
2024/01/26 00:35:45;;;;;;;16.60;9.93;;;;;;;;;;5033561;28;20035;-80
2024/01/26 00:38:11;;;;;;;13.90;8.18;;;;;;;;;;5032733;28;20133;-78
2024/01/26 00:40:36;;;;;;;14.75;7.22;;;;;;;;;;5032411;28;20036;-79
2024/01/26 00:43:01;;;;;;;25.42;12.02;;;;;;;;;;5032622;28;20033;-79
2024/01/26 00:45:27;;;;;;;43.92;25.45;;;;;;;;;;5031899;28;20029;-78
2024/01/26 00:47:52;;;;;;;19.08;10.02;;;;;;;;;;5018241;28;20499;-78
2024/01/26 00:50:17;;;;;;;18.77;11.30;;;;;;;;;;5026863;28;20040;-77
2024/01/26 00:52:43;;;;;;;21.40;11.90;;;;;;;;;;5013233;28;20432;-79
2024/01/26 00:55:08;;;;;;;29.25;16.73;;;;;;;;;;5033358;28;20073;-78
2024/01/26 00:57:33;;;;;;;34.45;23.63;;;;;;;;;;5033595;28;20053;-77
2024/01/26 01:00:07;;;;;;;20.65;12.13;;;;;;;;;;5032789;28;20040;-78
2024/01/26 01:02:32;;;;;;;20.20;9.30;;;;;;;;;;5030710;28;20452;-78
2024/01/26 01:04:58;;;;;;;18.73;6.55;;;;;;;;;;5032577;28;20029;-78
2024/01/26 01:07:23;;;;;;;15.10;6.93;;;;;;;;;;5020821;28;20116;-78
2024/01/26 01:09:49;;;;;;;17.95;10.07;;;;;;;;;;5016950;28;20124;-78
2024/01/26 01:12:14;;;;;;;21.45;12.63;;;;;;;;;;5021337;28;20057;-77
2024/01/26 01:14:40;;;;;;;14.30;7.78;;;;;;;;;;5031855;28;20124;-78
2024/01/26 01:17:05;;;;;;;15.43;6.18;;;;;;;;;;5034044;28;20032;-77
2024/01/26 01:19:31;;;;;;;18.08;6.57;;;;;;;;;;5034147;28;20033;-79
2024/01/26 01:21:56;;;;;;;13.55;6.45;;;;;;;;;;5022977;28;20020;-77
2024/01/26 01:24:21;;;;;;;13.40;6.15;;;;;;;;;;5023110;28;21075;-78
2024/01/26 01:26:47;;;;;;;13.57;6.30;;;;;;;;;;5018496;28;20044;-78
2024/01/26 01:29:12;;;;;;;12.32;6.75;;;;;;;;;;5030338;28;20361;-78
2024/01/26 01:31:37;;;;;;;12.77;6.10;;;;;;;;;;5032657;28;20079;-78
2024/01/26 01:34:05;;;;;;;14.30;6.07;;;;;;;;;;5033442;28;20455;-79
2024/01/26 01:36:30;;;;;;;19.13;10.40;;;;;;;;;;5031873;28;20037;-79
2024/01/26 01:38:55;;;;;;;15.73;6.95;;;;;;;;;;5032627;28;20158;-80
2024/01/26 01:41:21;;;;;;;12.75;6.82;;;;;;;;;;5032172;28;20071;-80
2024/01/26 01:43:53;;;;;;;17.48;10.43;;;;;;;;;;5031033;28;20266;-78
2024/01/26 01:46:19;;;;;;;21.67;10.77;;;;;;;;;;5031324;28;20025;-79
2024/01/26 01:48:44;;;;;;;13.10;7.03;;;;;;;;;;5020857;28;20028;-79
2024/01/26 01:51:10;;;;;;;18.70;10.02;;;;;;;;;;5033955;28;20028;-82
2024/01/26 01:53:35;;;;;;;15.95;7.43;;;;;;;;;;5045752;28;20025;-79
2024/01/26 01:56:01;;;;;;;18.33;8.52;;;;;;;;;;5031202;28;20440;-79
2024/01/26 01:58:28;;;;;;;22.17;13.00;;;;;;;;;;5031582;28;20036;-80
2024/01/26 02:00:53;;;;;;;33.08;20.25;;;;;;;;;;5031837;28;20043;-78
2024/01/26 02:03:20;;;;;;;15.70;8.35;;;;;;;;;;5032747;28;20029;-78
2024/01/26 02:05:47;;;;;;;12.70;6.63;;;;;;;;;;5034854;28;20024;-79
2024/01/26 02:08:13;;;;;;;18.45;7.60;;;;;;;;;;5038961;28;20086;-80
2024/01/26 02:10:38;;;;;;;19.38;9.93;;;;;;;;;;5033643;28;20045;-80
2024/01/26 02:13:04;;;;;;;16.10;9.98;;;;;;;;;;5031867;28;20033;-76
2024/01/26 02:15:29;;;;;;;15.65;6.90;;;;;;;;;;5034240;28;20452;-78
2024/01/26 02:17:54;;;;;;;14.05;8.00;;;;;;;;;;5051306;28;20048;-78
2024/01/26 02:20:20;;;;;;;14.50;8.90;;;;;;;;;;5032198;28;20036;-76
2024/01/26 02:22:45;;;;;;;20.83;10.32;;;;;;;;;;5042718;28;20025;-78
2024/01/26 02:25:11;;;;;;;21.20;11.20;;;;;;;;;;5037628;28;20044;-79
2024/01/26 02:27:36;;;;;;;17.73;9.20;;;;;;;;;;5034773;28;20021;-79
2024/01/26 02:30:02;;;;;;;17.20;7.85;;;;;;;;;;5020409;28;20075;-82
2024/01/26 02:32:27;;;;;;;15.65;7.57;;;;;;;;;;5035515;28;20124;-78
2024/01/26 02:34:52;;;;;;;15.88;8.07;;;;;;;;;;5037430;28;20024;-77
2024/01/26 02:37:18;;;;;;;18.08;9.55;;;;;;;;;;5034464;28;20032;-77
2024/01/26 02:39:43;;;;;;;17.17;8.45;;;;;;;;;;5017965;28;20425;-78
2024/01/26 02:42:08;;;;;;;16.38;8.60;;;;;;;;;;5020264;28;20120;-79
2024/01/26 02:44:34;;;;;;;15.57;7.75;;;;;;;;;;5020806;28;20120;-80
2024/01/26 02:46:59;;;;;;;15.90;7.75;;;;;;;;;;5017990;28;20021;-79
2024/01/26 02:49:25;;;;;;;15.60;6.95;;;;;;;;;;5020095;28;20033;-78
2024/01/26 02:51:50;;;;;;;17.38;7.88;;;;;;;;;;5033812;28;20452;-78
2024/01/26 02:54:16;;;;;;;15.95;8.00;;;;;;;;;;5036214;28;20029;-78
2024/01/26 02:56:41;;;;;;;13.75;6.18;;;;;;;;;;5036453;28;20044;-77
2024/01/26 02:59:06;;;;;;;14.32;7.75;;;;;;;;;;5034356;28;20029;-79
2024/01/26 03:01:32;;;;;;;16.10;8.75;;;;;;;;;;5050256;28;20033;-77
2024/01/26 03:03:59;;;;;;;12.27;7.10;;;;;;;;;;5028396;28;20040;-77
2024/01/26 03:06:24;;;;;;;19.02;9.43;;;;;;;;;;5027417;28;20033;-79
2024/01/26 03:08:49;;;;;;;16.40;8.00;;;;;;;;;;5022279;28;20037;-79
2024/01/26 03:11:15;;;;;;;16.55;8.65;;;;;;;;;;5035863;28;20021;-80
2024/01/26 03:13:40;;;;;;;13.95;6.88;;;;;;;;;;5019170;28;20033;-78
2024/01/26 03:16:06;;;;;;;13.55;6.72;;;;;;;;;;5043194;28;20451;-78
2024/01/26 03:18:31;;;;;;;15.75;7.72;;;;;;;;;;5031946;28;20043;-80
2024/01/26 03:20:56;;;;;;;14.55;7.75;;;;;;;;;;5034396;28;20120;-79
2024/01/26 03:23:22;;;;;;;13.32;6.90;;;;;;;;;;5034218;28;20101;-82
2024/01/26 03:25:47;;;;;;;10.75;7.03;;;;;;;;;;5034540;28;20035;-80
2024/01/26 03:28:12;;;;;;;16.27;7.35;;;;;;;;;;5032896;28;20018;-82
2024/01/26 03:30:43;;;;;;;13.35;7.30;;;;;;;;;;5035430;28;20025;-84
2024/01/26 03:33:09;;;;;;;12.23;6.78;;;;;;;;;;5029102;28;20868;-81
2024/01/26 03:35:34;;;;;;;15.30;6.95;;;;;;;;;;5026234;28;20036;-80
2024/01/26 03:37:59;;;;;;;16.25;8.27;;;;;;;;;;5033413;28;20350;-81
2024/01/26 03:40:25;;;;;;;12.07;7.10;;;;;;;;;;5034850;28;20044;-81
2024/01/26 03:42:50;;;;;;;13.15;8.25;;;;;;;;;;5033615;28;20040;-81
2024/01/26 03:45:16;;;;;;;14.45;7.28;;;;;;;;;;5037135;28;20075;-83
2024/01/26 03:47:41;;;;;;;13.85;7.57;;;;;;;;;;5035009;28;20368;-81
2024/01/26 03:50:07;;;;;;;16.30;7.80;;;;;;;;;;5020347;28;20471;-82
2024/01/26 03:52:32;;;;;;;14.05;7.40;;;;;;;;;;5035210;28;20418;-82
2024/01/26 03:54:58;;;;;;;12.80;6.80;;;;;;;;;;5019327;28;20129;-81
2024/01/26 03:57:23;;;;;;;14.02;7.38;;;;;;;;;;5034045;28;20056;-81
2024/01/26 03:59:48;;;;;;;16.50;7.78;;;;;;;;;;5032285;28;20106;-83
2024/01/26 04:02:14;;;;;;;15.45;8.02;;;;;;;;;;5023399;28;20029;-81
2024/01/26 04:04:40;;;;;;;18.00;8.68;;;;;;;;;;5018960;28;20029;-80
2024/01/26 04:07:05;;;;;;;13.82;7.38;;;;;;;;;;5032884;28;20029;-80
2024/01/26 04:09:30;;;;;;;20.15;9.70;;;;;;;;;;5032971;28;20122;-79
2024/01/26 04:11:56;;;;;;;16.15;9.00;;;;;;;;;;5033367;28;20453;-83
2024/01/26 04:14:21;;;;;;;31.80;22.85;;;;;;;;;;5032825;28;20459;-81
2024/01/26 04:16:46;;;;;;;28.77;18.38;;;;;;;;;;5031908;28;20022;-82
2024/01/26 04:19:12;;;;;;;48.05;31.60;;;;;;;;;;5031757;28;20025;-78
2024/01/26 04:21:37;;;;;;;41.50;32.20;;;;;;;;;;5032905;28;20029;-81
2024/01/26 04:24:03;;;;;;;56.90;48.15;;;;;;;;;;5034842;28;20031;-82
2024/01/26 04:26:28;;;;;;;27.02;18.92;;;;;;;;;;5031575;28;20026;-82
2024/01/26 04:28:53;;;;;;;17.40;11.57;;;;;;;;;;5019444;28;20048;-79
2024/01/26 04:31:22;;;;;;;17.25;9.07;;;;;;;;;;5030563;28;20029;-80
2024/01/26 04:33:47;;;;;;;18.95;8.20;;;;;;;;;;5026232;28;20068;-80
2024/01/26 04:36:13;;;;;;;18.08;7.68;;;;;;;;;;5023687;28;20056;-80
2024/01/26 04:38:38;;;;;;;17.90;8.50;;;;;;;;;;5019788;28;20040;-81
2024/01/26 04:41:03;;;;;;;15.05;6.45;;;;;;;;;;5031520;28;20037;-79
2024/01/26 04:43:32;;;;;;;19.88;7.85;;;;;;;;;;5032872;28;20429;-79
2024/01/26 04:45:57;;;;;;;18.65;9.85;;;;;;;;;;5033571;28;20030;-80
2024/01/26 04:48:22;;;;;;;15.88;6.72;;;;;;;;;;5030305;28;20147;-79
2024/01/26 04:50:48;;;;;;;13.70;7.65;;;;;;;;;;5033868;28;20029;-80
2024/01/26 04:53:15;;;;;;;17.00;8.85;;;;;;;;;;5030508;28;20039;-80
2024/01/26 04:55:40;;;;;;;13.55;7.65;;;;;;;;;;5032419;28;20087;-79
2024/01/26 04:58:05;;;;;;;16.50;8.70;;;;;;;;;;5014441;28;20445;-79
2024/01/26 05:00:31;;;;;;;22.42;12.77;;;;;;;;;;5025970;28;20036;-78
2024/01/26 05:02:56;;;;;;;14.10;9.15;;;;;;;;;;5024252;28;20028;-79
2024/01/26 05:05:22;;;;;;;17.10;8.73;;;;;;;;;;5023199;28;20025;-79
2024/01/26 05:07:47;;;;;;;15.88;7.60;;;;;;;;;;5026609;28;20130;-76
2024/01/26 05:10:13;;;;;;;17.98;9.55;;;;;;;;;;5027688;28;21227;-77
2024/01/26 05:12:38;;;;;;;17.15;10.55;;;;;;;;;;5029190;28;20025;-76
2024/01/26 05:15:04;;;;;;;17.70;8.63;;;;;;;;;;5028325;28;20033;-77
2024/01/26 05:17:30;;;;;;;26.10;14.23;;;;;;;;;;5031166;28;22611;-78
2024/01/26 05:19:55;;;;;;;39.60;23.70;;;;;;;;;;5027212;28;20033;-77
2024/01/26 05:22:20;;;;;;;55.42;38.30;;;;;;;;;;5028588;28;20083;-77
2024/01/26 05:24:46;;;;;;;44.67;32.78;;;;;;;;;;5027947;28;20017;-78
2024/01/26 05:27:11;;;;;;;44.95;32.85;;;;;;;;;;5029359;28;20115;-78
2024/01/26 05:29:37;;;;;;;25.42;17.98;;;;;;;;;;5028790;28;20191;-79
2024/01/26 05:32:03;;;;;;;23.83;14.38;;;;;;;;;;5029144;28;20092;-78
2024/01/26 05:34:28;;;;;;;18.98;12.65;;;;;;;;;;5027154;28;20037;-79
2024/01/26 05:36:53;;;;;;;24.08;15.45;;;;;;;;;;5026981;28;20082;-77
2024/01/26 05:39:19;;;;;;;21.50;13.80;;;;;;;;;;5028496;28;20041;-76
2024/01/26 05:41:44;;;;;;;16.27;8.65;;;;;;;;;;5027038;28;20032;-77
2024/01/26 05:44:10;;;;;;;22.38;8.85;;;;;;;;;;5027725;28;20033;-77
2024/01/26 05:46:35;;;;;;;18.58;9.20;;;;;;;;;;5026501;28;20029;-77
2024/01/26 05:49:00;;;;;;;14.55;7.97;;;;;;;;;;5027517;28;20033;-77
2024/01/26 05:51:26;;;;;;;21.23;11.65;;;;;;;;;;5027696;28;20071;-78
2024/01/26 05:53:53;;;;;;;27.42;17.02;;;;;;;;;;5028464;28;20039;-75
2024/01/26 05:56:19;;;;;;;26.27;15.35;;;;;;;;;;5027460;28;20029;-78
2024/01/26 05:58:44;;;;;;;31.73;19.85;;;;;;;;;;5027341;28;20087;-78
2024/01/26 06:01:10;;;;;;;36.38;22.20;;;;;;;;;;5028332;28;20043;-75
2024/01/26 06:03:35;;;;;;;35.50;24.98;;;;;;;;;;5026389;28;20448;-77
2024/01/26 06:06:00;;;;;;;31.95;22.75;;;;;;;;;;5028975;28;20745;-78
2024/01/26 06:08:26;;;;;;;35.38;25.17;;;;;;;;;;5026147;28;20116;-77
2024/01/26 06:10:55;;;;;;;37.08;24.92;;;;;;;;;;5027161;28;20120;-76
2024/01/26 06:13:21;;;;;;;42.17;29.38;;;;;;;;;;5027816;28;20510;-76
2024/01/26 06:15:46;;;;;;;30.42;21.65;;;;;;;;;;5026201;28;20037;-78
2024/01/26 06:18:12;;;;;;;28.75;20.48;;;;;;;;;;5028517;28;20114;-81
2024/01/26 06:20:39;;;;;;;23.83;15.23;;;;;;;;;;5029104;28;20474;-81
2024/01/26 06:23:04;;;;;;;24.42;16.52;;;;;;;;;;5029506;28;20112;-77
2024/01/26 06:25:30;;;;;;;24.67;14.27;;;;;;;;;;5030724;28;20542;-79
2024/01/26 06:27:55;;;;;;;24.88;14.43;;;;;;;;;;5030577;28;20032;-81
2024/01/26 06:30:21;;;;;;;17.13;10.20;;;;;;;;;;5029773;28;20062;-79
2024/01/26 06:32:46;;;;;;;15.50;8.00;;;;;;;;;;5026776;28;20063;-78
2024/01/26 06:35:11;;;;;;;16.23;10.10;;;;;;;;;;5029132;28;20036;-77
2024/01/26 06:37:37;;;;;;;19.42;13.18;;;;;;;;;;5025950;28;20104;-77
2024/01/26 06:40:02;;;;;;;16.55;10.27;;;;;;;;;;5024975;28;20044;-78
2024/01/26 06:42:30;;;;;;;17.77;11.10;;;;;;;;;;5029944;28;20033;-78
2024/01/26 06:44:56;;;;;;;25.20;14.23;;;;;;;;;;5026081;28;20585;-79
2024/01/26 06:47:21;;;;;;;24.00;14.02;;;;;;;;;;5032738;28;20158;-77
2024/01/26 06:49:46;;;;;;;19.77;12.15;;;;;;;;;;5031226;28;20029;-78
2024/01/26 06:52:12;;;;;;;21.80;13.90;;;;;;;;;;5027311;28;20075;-78
2024/01/26 06:54:40;;;;;;;26.33;19.55;;;;;;;;;;5025670;28;20336;-77
2024/01/26 06:57:06;;;;;;;22.60;18.52;;;;;;;;;;5028470;28;20025;-77
2024/01/26 06:59:32;;;;;;;22.50;17.83;;;;;;;;;;5025473;28;20048;-78
2024/01/26 07:01:58;;;;;;;18.08;10.80;;;;;;;;;;5025760;28;20065;-76
2024/01/26 07:04:23;;;;;;;22.50;13.27;;;;;;;;;;5029556;28;20021;-77
2024/01/26 07:06:49;;;;;;;20.77;12.57;;;;;;;;;;5029889;28;20033;-76
2024/01/26 07:09:14;;;;;;;21.75;14.48;;;;;;;;;;5029735;28;20025;-77
2024/01/26 07:11:40;;;;;;;63.22;42.88;;;;;;;;;;5032474;28;20119;-78
2024/01/26 07:14:05;;;;;;;148.10;103.35;;;;;;;;;;5027168;28;20033;-77
2024/01/26 07:16:31;;;;;;;40.85;30.63;;;;;;;;;;5046620;28;20071;-77
2024/01/26 07:18:56;;;;;;;40.35;33.60;;;;;;;;;;5028849;28;20035;-77
2024/01/26 07:21:22;;;;;;;31.98;22.08;;;;;;;;;;5028098;28;20456;-76
2024/01/26 07:23:49;;;;;;;37.17;26.88;;;;;;;;;;5031189;28;20098;-76
2024/01/26 07:26:19;;;;;;;24.70;16.83;;;;;;;;;;5030497;28;20449;-78
2024/01/26 07:28:44;;;;;;;21.30;13.40;;;;;;;;;;5029174;28;20071;-78
2024/01/26 07:31:09;;;;;;;34.13;23.92;;;;;;;;;;5032224;28;20056;-77
2024/01/26 07:33:34;;;;;;;53.35;41.42;;;;;;;;;;5029635;28;20060;-78
2024/01/26 07:36:00;;;;;;;47.00;37.13;;;;;;;;;;5030985;28;20025;-78
2024/01/26 07:38:25;;;;;;;35.53;23.90;;;;;;;;;;5027795;28;20032;-78
2024/01/26 07:40:50;;;;;;;17.98;11.57;;;;;;;;;;5028652;28;20037;-78
2024/01/26 07:43:16;;;;;;;31.02;23.35;;;;;;;;;;5029877;28;20083;-79
2024/01/26 07:45:41;;;;;;;33.28;22.50;;;;;;;;;;5041446;28;20036;-77
2024/01/26 07:48:08;;;;;;;24.60;17.45;;;;;;;;;;5030124;28;20434;-75
2024/01/26 07:50:34;;;;;;;28.20;17.38;;;;;;;;;;5030749;28;20071;-74
2024/01/26 07:52:59;;;;;;;26.70;17.73;;;;;;;;;;5028758;28;20436;-77
2024/01/26 07:55:25;;;;;;;31.05;21.20;;;;;;;;;;5030822;28;20425;-74
2024/01/26 07:57:50;;;;;;;29.50;20.50;;;;;;;;;;5028370;28;20112;-76
2024/01/26 08:00:17;;;;;;;36.90;27.45;;;;;;;;;;5031723;28;20031;-76
2024/01/26 08:02:42;;;;;;;19.65;12.18;;;;;;;;;;5030551;28;20032;-77
2024/01/26 08:05:08;;;;;;;23.05;14.35;;;;;;;;;;5029452;28;20025;-76
2024/01/26 08:07:34;;;;;;;36.28;21.92;;;;;;;;;;5031369;28;20040;-75
2024/01/26 08:10:00;;;;;;;29.08;18.25;;;;;;;;;;5027212;28;20619;-75
2024/01/26 08:12:25;;;;;;;38.92;25.58;;;;;;;;;;5029202;28;20115;-76
2024/01/26 08:14:50;;;;;;;48.60;34.10;;;;;;;;;;5027022;28;20116;-74
2024/01/26 08:17:16;;;;;;;34.28;22.92;;;;;;;;;;5030860;28;20157;-74
2024/01/26 08:19:41;;;;;;;34.75;23.13;;;;;;;;;;5031702;28;20121;-77
2024/01/26 08:22:06;;;;;;;21.88;13.32;;;;;;;;;;5029648;28;20037;-75
2024/01/26 08:24:32;;;;;;;28.55;18.77;;;;;;;;;;5028735;28;20020;-76
2024/01/26 08:26:57;;;;;;;32.88;21.40;;;;;;;;;;5030136;28;20017;-75
2024/01/26 08:29:26;;;;;;;27.35;18.33;;;;;;;;;;5028665;28;20075;-75
2024/01/26 08:31:52;;;;;;;31.92;21.73;;;;;;;;;;5027733;28;20028;-73
2024/01/26 08:34:17;;;;;;;19.23;12.98;;;;;;;;;;5028000;28;20039;-75
2024/01/26 08:36:43;;;;;;;24.75;14.35;;;;;;;;;;5025682;28;20044;-74
2024/01/26 08:39:12;;;;;;;22.55;16.70;;;;;;;;;;5028105;28;20474;-75
2024/01/26 08:41:38;;;;;;;18.98;13.90;;;;;;;;;;5031239;28;20029;-76
2024/01/26 08:44:04;;;;;;;22.70;15.40;;;;;;;;;;5027389;28;20025;-76
2024/01/26 08:46:29;;;;;;;17.98;13.10;;;;;;;;;;5027757;28;20059;-76
2024/01/26 08:48:55;;;;;;;33.63;20.75;;;;;;;;;;5028442;28;20496;-74
2024/01/26 08:51:20;;;;;;;18.35;12.30;;;;;;;;;;5028051;28;20120;-77
2024/01/26 08:53:46;;;;;;;22.73;16.35;;;;;;;;;;5030131;28;20095;-75
2024/01/26 08:56:12;;;;;;;18.88;11.30;;;;;;;;;;5030830;28;20085;-77
2024/01/26 08:58:37;;;;;;;17.27;13.13;;;;;;;;;;5026845;28;20125;-75
2024/01/26 09:01:03;;;;;;;18.75;11.45;;;;;;;;;;5029353;28;20425;-75
2024/01/26 09:03:28;;;;;;;22.58;14.38;;;;;;;;;;5027792;28;20033;-77
2024/01/26 09:05:54;;;;;;;42.50;31.15;;;;;;;;;;5029508;28;20475;-75
2024/01/26 09:08:19;;;;;;;20.92;14.65;;;;;;;;;;5027773;28;20029;-75
2024/01/26 09:10:44;;;;;;;23.77;15.00;;;;;;;;;;5028267;28;20024;-75
2024/01/26 09:13:10;;;;;;;22.05;15.52;;;;;;;;;;5027752;28;20027;-74
2024/01/26 09:15:35;;;;;;;23.58;15.63;;;;;;;;;;5030046;28;20092;-75
2024/01/26 09:18:01;;;;;;;23.38;14.85;;;;;;;;;;5025857;28;20056;-76
2024/01/26 09:20:27;;;;;;;31.17;20.77;;;;;;;;;;5028282;28;20036;-75
2024/01/26 09:22:52;;;;;;;40.08;27.65;;;;;;;;;;5028623;28;20086;-76
2024/01/26 09:25:17;;;;;;;36.83;26.48;;;;;;;;;;5028180;28;20347;-78
2024/01/26 09:27:43;;;;;;;30.15;19.88;;;;;;;;;;5028512;28;20028;-75
2024/01/26 09:30:08;;;;;;;25.45;15.90;;;;;;;;;;5028833;28;20025;-77
2024/01/26 09:32:34;;;;;;;35.97;27.40;;;;;;;;;;5027275;28;20058;-75
2024/01/26 09:35:00;;;;;;;25.08;16.63;;;;;;;;;;5024984;28;20111;-75
2024/01/26 09:37:27;;;;;;;25.60;16.50;;;;;;;;;;5029689;28;20040;-74
2024/01/26 09:39:52;;;;;;;20.50;15.05;;;;;;;;;;5028092;28;20025;-77
2024/01/26 09:42:18;;;;;;;26.13;15.50;;;;;;;;;;5027673;28;20094;-76
2024/01/26 09:44:43;;;;;;;15.65;10.25;;;;;;;;;;5028176;28;20025;-76
2024/01/26 09:47:12;;;;;;;20.88;12.43;;;;;;;;;;5027992;28;20488;-76
2024/01/26 09:49:43;;;;;;;22.77;15.77;;;;;;;;;;5024880;28;20041;-75
2024/01/26 09:52:09;;;;;;;16.75;11.10;;;;;;;;;;5027699;28;20049;-76
2024/01/26 09:54:35;;;;;;;20.88;12.05;;;;;;;;;;5028557;28;20249;-75
2024/01/26 09:57:01;;;;;;;27.55;17.65;;;;;;;;;;5027429;28;20348;-74
2024/01/26 09:59:26;;;;;;;14.63;11.43;;;;;;;;;;5028903;28;20040;-76
2024/01/26 10:01:53;;;;;;;32.35;21.95;;;;;;;;;;5029032;28;20025;-76
2024/01/26 10:04:19;;;;;;;54.65;43.42;;;;;;;;;;5028844;28;20021;-77
2024/01/26 10:06:45;;;;;;;57.72;44.25;;;;;;;;;;5028810;28;20025;-75
2024/01/26 10:09:12;;;;;;;23.70;17.67;;;;;;;;;;5028304;28;20048;-74
2024/01/26 10:11:37;;;;;;;27.30;18.35;;;;;;;;;;5030101;28;20021;-75
2024/01/26 10:14:03;;;;;;;37.65;29.17;;;;;;;;;;5027311;28;20066;-74
2024/01/26 10:16:28;;;;;;;27.25;18.77;;;;;;;;;;5028634;28;20591;-76
2024/01/26 10:18:53;;;;;;;18.08;10.30;;;;;;;;;;5025552;28;20025;-75
2024/01/26 10:21:20;;;;;;;33.38;21.80;;;;;;;;;;5028194;28;20115;-75
2024/01/26 10:23:46;;;;;;;23.45;13.00;;;;;;;;;;5027437;28;20048;-75
2024/01/26 10:26:13;;;;;;;26.77;17.98;;;;;;;;;;5028418;28;20029;-76
2024/01/26 10:28:38;;;;;;;73.18;44.97;;;;;;;;;;5026986;28;20526;-75
2024/01/26 10:31:05;;;;;;;44.65;31.15;;;;;;;;;;5028944;28;20084;-77
2024/01/26 10:33:31;;;;;;;31.55;20.80;;;;;;;;;;5024994;28;20285;-75
2024/01/26 10:35:58;;;;;;;23.23;14.73;;;;;;;;;;5027697;28;20037;-75
2024/01/26 10:38:24;;;;;;;19.70;12.70;;;;;;;;;;5026962;28;20021;-77
2024/01/26 10:40:52;;;;;;;26.20;17.52;;;;;;;;;;5032028;28;20467;-75
2024/01/26 10:43:18;;;;;;;35.78;23.40;;;;;;;;;;5030024;28;20068;-76
2024/01/26 10:45:43;;;;;;;31.88;23.30;;;;;;;;;;5031367;28;20412;-76
2024/01/26 10:48:10;;;;;;;19.88;12.57;;;;;;;;;;5032384;28;20147;-74
2024/01/26 10:50:35;;;;;;;18.95;12.88;;;;;;;;;;5030591;28;20047;-75
2024/01/26 10:53:03;;;;;;;17.50;11.15;;;;;;;;;;5030707;28;20021;-75
2024/01/26 10:55:29;;;;;;;40.88;29.10;;;;;;;;;;5029181;28;20025;-74
2024/01/26 10:57:54;;;;;;;43.50;30.63;;;;;;;;;;5031071;28;20043;-76
2024/01/26 11:00:20;;;;;;;20.02;12.75;;;;;;;;;;5031717;28;20028;-76
2024/01/26 11:02:45;;;;;;;11.88;6.10;;;;;;;;;;5028567;28;20043;-74
2024/01/26 11:05:11;;;;;;;20.90;14.73;;;;;;;;;;5032359;28;20043;-76
2024/01/26 11:07:37;;;;;;;17.75;12.57;;;;;;;;;;5032299;28;20025;-74
2024/01/26 11:10:04;;;;;;;15.68;10.02;;;;;;;;;;5029815;28;20033;-74
2024/01/26 11:12:33;;;;;;;21.60;15.23;;;;;;;;;;5028769;28;20031;-73
2024/01/26 11:15:14;;;;;;;23.15;17.55;;;;;;;;;;5029565;28;20028;-75
2024/01/26 11:17:53;;;;;;;19.00;13.35;;;;;;;;;;5031141;28;20448;-75
2024/01/26 11:20:25;;;;;;;22.37;15.37;;;;;;;;;;5031933;28;20122;-76
2024/01/26 11:23:00;;;;;;;21.20;14.85;;;;;;;;;;5030943;28;20040;-75
2024/01/26 11:25:25;;;;;;;11.52;6.82;;;;;;;;;;5035926;28;20037;-80
2024/01/26 11:27:58;;;;;;;12.52;7.95;;;;;;;;;;5036563;28;20463;-77
2024/01/26 11:30:24;;;;;;;17.52;11.52;;;;;;;;;;5032319;28;21534;-75
2024/01/26 11:32:50;;;;;;;13.73;7.28;;;;;;;;;;5030105;28;20049;-75
2024/01/26 11:35:16;;;;;;;11.55;8.93;;;;;;;;;;5032289;28;20020;-75
2024/01/26 11:37:42;;;;;;;14.77;10.75;;;;;;;;;;5032609;28;20043;-75
2024/01/26 11:40:09;;;;;;;11.02;6.97;;;;;;;;;;5031800;28;20376;-77
2024/01/26 11:42:34;;;;;;;8.40;7.13;;;;;;;;;;5033498;28;20056;-79
2024/01/26 11:45:11;;;;;;;13.45;9.02;;;;;;;;;;5030024;28;20052;-79
2024/01/26 11:47:39;;;;;;;16.92;13.80;;;;;;;;;;5051169;28;20021;-77
2024/01/26 11:50:08;;;;;;;13.85;9.75;;;;;;;;;;5050225;28;20082;-77
2024/01/26 11:52:37;;;;;;;12.80;10.15;;;;;;;;;;5052744;28;20409;-75
2024/01/26 11:55:03;;;;;;;23.90;15.65;;;;;;;;;;5047277;28;20029;-74
2024/01/26 11:57:29;;;;;;;20.92;13.35;;;;;;;;;;5043422;28;20047;-77
2024/01/26 11:59:54;;;;;;;14.45;9.02;;;;;;;;;;5030591;28;20079;-75
2024/01/26 12:02:20;;;;;;;13.52;10.52;;;;;;;;;;5028533;28;20049;-76
2024/01/26 12:04:45;;;;;;;14.38;10.10;;;;;;;;;;5029867;28;20033;-79
2024/01/26 12:07:10;;;;;;;12.57;8.90;;;;;;;;;;5030503;28;20053;-76
2024/01/26 12:09:36;;;;;;;13.60;10.63;;;;;;;;;;5031858;28;20029;-76
2024/01/26 12:12:02;;;;;;;14.88;10.57;;;;;;;;;;5029202;28;20040;-75
2024/01/26 12:14:28;;;;;;;36.15;31.65;;;;;;;;;;5027303;28;20127;-76
2024/01/26 12:16:54;;;;;;;21.23;16.75;;;;;;;;;;5032285;28;20512;-77
2024/01/26 12:19:19;;;;;;;12.52;10.00;;;;;;;;;;5030180;28;20040;-76
2024/01/26 12:21:47;;;;;;;13.77;10.45;;;;;;;;;;5029510;28;20037;-75
2024/01/26 12:24:12;;;;;;;13.82;9.45;;;;;;;;;;5028597;28;20112;-75
2024/01/26 12:26:38;;;;;;;23.35;18.08;;;;;;;;;;5029777;28;20396;-76
2024/01/26 12:29:04;;;;;;;20.35;14.77;;;;;;;;;;5029246;28;20025;-74
2024/01/26 12:31:32;;;;;;;15.63;11.77;;;;;;;;;;5026251;28;20029;-75
2024/01/26 12:33:57;;;;;;;11.85;9.20;;;;;;;;;;5026973;28;20045;-74
2024/01/26 12:36:28;;;;;;;10.77;8.23;;;;;;;;;;5028980;28;20458;-74
2024/01/26 12:38:53;;;;;;;18.95;12.25;;;;;;;;;;5028544;28;20419;-74
2024/01/26 12:41:18;;;;;;;11.07;8.35;;;;;;;;;;5031049;28;20082;-76
2024/01/26 12:43:44;;;;;;;13.63;10.75;;;;;;;;;;5030357;28;20513;-74
2024/01/26 12:46:10;;;;;;;10.45;7.25;;;;;;;;;;5030660;28;20021;-76
2024/01/26 12:48:35;;;;;;;9.80;5.57;;;;;;;;;;5027085;28;20081;-78
2024/01/26 12:51:01;;;;;;;12.65;9.05;;;;;;;;;;5027766;28;20021;-75
2024/01/26 12:53:27;;;;;;;13.63;9.88;;;;;;;;;;5029462;28;20087;-76
2024/01/26 12:55:52;;;;;;;8.75;5.05;;;;;;;;;;5027241;28;20424;-75
2024/01/26 12:58:18;;;;;;;17.40;13.18;;;;;;;;;;5030696;28;20025;-75
2024/01/26 13:00:44;;;;;;;17.02;13.35;;;;;;;;;;5028551;28;20029;-75
2024/01/26 13:03:09;;;;;;;27.25;23.52;;;;;;;;;;5027315;28;20055;-76
2024/01/26 13:05:34;;;;;;;22.92;17.48;;;;;;;;;;5027145;28;20124;-77
2024/01/26 13:08:00;;;;;;;15.93;11.88;;;;;;;;;;5027446;28;20027;-76
2024/01/26 13:10:25;;;;;;;22.40;18.42;;;;;;;;;;5027748;28;20087;-75
2024/01/26 13:12:52;;;;;;;23.30;16.85;;;;;;;;;;5028290;28;20123;-75
2024/01/26 13:15:19;;;;;;;17.05;13.35;;;;;;;;;;5027981;28;20053;-76
2024/01/26 13:17:45;;;;;;;10.00;6.88;;;;;;;;;;5028883;28;20488;-75
2024/01/26 13:20:11;;;;;;;14.50;11.57;;;;;;;;;;5028129;28;20037;-78
2024/01/26 13:22:36;;;;;;;25.88;21.00;;;;;;;;;;5027442;28;20033;-75
2024/01/26 13:25:02;;;;;;;18.30;12.38;;;;;;;;;;5029045;28;20031;-73
2024/01/26 13:27:27;;;;;;;15.63;9.13;;;;;;;;;;5027529;28;20028;-75
2024/01/26 13:29:52;;;;;;;16.58;10.70;;;;;;;;;;5026067;28;20032;-76
2024/01/26 13:32:18;;;;;;;11.73;9.13;;;;;;;;;;5028218;28;20105;-74
2024/01/26 13:34:43;;;;;;;14.63;10.27;;;;;;;;;;5022242;28;20108;-74
2024/01/26 13:37:09;;;;;;;16.45;11.65;;;;;;;;;;5027942;28;20634;-71
2024/01/26 13:39:34;;;;;;;13.43;9.15;;;;;;;;;;5032690;28;20357;-73
2024/01/26 13:42:00;;;;;;;25.55;16.92;;;;;;;;;;5025423;28;20032;-72
2024/01/26 13:44:27;;;;;;;29.38;18.98;;;;;;;;;;5028227;28;20063;-72
2024/01/26 13:46:53;;;;;;;29.15;21.25;;;;;;;;;;5046849;28;20056;-73
2024/01/26 13:49:19;;;;;;;20.75;16.05;;;;;;;;;;5047800;28;20442;-78
2024/01/26 13:51:44;;;;;;;25.83;20.10;;;;;;;;;;5040883;28;20017;-73
2024/01/26 13:54:10;;;;;;;24.42;19.70;;;;;;;;;;5011184;28;20108;-71
2024/01/26 13:56:37;;;;;;;24.95;18.40;;;;;;;;;;5014567;28;20467;-75
2024/01/26 13:59:04;;;;;;;12.02;9.15;;;;;;;;;;5028234;28;20034;-72
2024/01/26 14:01:29;;;;;;;11.32;7.20;;;;;;;;;;5035679;28;20033;-76
2024/01/26 14:03:55;;;;;;;8.88;5.75;;;;;;;;;;5033232;28;20072;-77
2024/01/26 14:06:20;;;;;;;9.90;7.35;;;;;;;;;;5049883;28;21237;-77
2024/01/26 14:08:45;;;;;;;21.38;13.38;;;;;;;;;;5032094;28;20087;-76
2024/01/26 14:11:11;;;;;;;23.92;16.17;;;;;;;;;;5035374;28;20032;-77
2024/01/26 14:13:38;;;;;;;15.23;11.00;;;;;;;;;;5033216;28;20851;-77